.
WxDataArchive / Data Records for 2010-11-13
2010-11-12 November 2010 2010-11-14

Data Records for Saturday, 13 November 2010

Time	Temp	Chill	HIndex	Humid	Dewpt	 Wind 	HiWind	WindDir	Rain 	Barom 
-----	----	-----	------	-----	-----	------	------	-------	-----	----- 
00:00	39.2	39.2	39.2	83	34.5	0	0	---	0.00	30.222 
00:05	39.2	39.2	39.2	83	34.5	0	0	---	0.00	30.222 
00:10	39.2	39.2	39.2	83	34.5	0	0	---	0.00	30.222 
00:15	39.1	39.1	39.1	83	34.4	0	0	---	0.00	30.218 
00:20	38.9	38.9	38.9	84	34.5	0	0	---	0.00	30.218 
00:25	38.8	38.8	38.8	84	34.4	0	0	---	0.00	30.218 
00:30	38.8	38.8	38.8	84	34.4	0	0	---	0.00	30.212 
00:35	38.6	38.6	38.6	84	34.2	0	0	---	0.00	30.212 
00:40	38.5	38.5	38.5	84	34.1	0	0	---	0.00	30.212 
00:45	38.3	38.3	38.3	84	33.9	0	0	---	0.00	30.212 
00:50	38.2	38.2	38.2	84	33.8	0	0	---	0.00	30.212 
00:55	37.9	37.9	37.9	85	33.8	0	0	---	0.00	30.212 
01:00	37.8	37.8	37.8	85	33.7	0	0	---	0.00	30.208 
01:05	37.5	37.5	37.5	85	33.4	0	0	---	0.00	30.208 
01:10	37.3	37.3	37.3	86	33.5	0	0	---	0.00	30.208 
01:15	37.2	37.2	37.2	86	33.4	0	0	---	0.00	30.203 
01:20	36.9	36.9	36.9	86	33.1	0	0	---	0.00	30.203 
01:25	36.9	36.9	36.9	87	33.4	0	0	---	0.00	30.203 
01:30	36.8	36.8	36.8	87	33.3	0	0	---	0.00	30.198 
01:35	36.9	36.9	36.9	89	34.0	0	0	---	0.00	30.198 
01:40	37.3	37.3	37.3	89	34.4	0	0	---	0.00	30.198 
01:45	37.9	37.9	37.9	89	35.0	0	1	90	0.00	30.192 
01:50	38.3	38.3	38.3	89	35.3	0	0	---	0.00	30.192 
01:55	38.5	38.5	38.5	88	35.3	0	0	---	0.00	30.192 
02:00	38.8	38.8	38.8	88	35.6	0	1	90	0.00	30.190 
02:05	39.1	39.1	39.1	88	35.9	0	1	90	0.00	30.190 
02:10	39.3	39.3	39.3	88	36.0	0	2	90	0.00	30.190 
02:15	39.8	39.8	39.8	87	36.3	1	2	90	0.00	30.182 
02:20	39.9	39.9	39.9	86	36.1	0	2	90	0.00	30.182 
02:25	40.1	40.1	40.1	85	36.0	0	2	90	0.00	30.182 
02:30	40.1	40.1	40.1	85	36.0	0	2	90	0.00	30.180 
02:35	40.1	40.1	40.1	85	36.0	0	2	90	0.00	30.180 
02:40	39.9	39.9	39.9	85	35.8	0	2	90	0.00	30.180 
02:45	39.8	39.8	39.8	85	35.7	0	1	90	0.00	30.174 
02:50	39.6	39.6	39.6	85	35.5	0	1	90	0.00	30.174 
02:55	39.5	39.5	39.5	85	35.4	0	0	---	0.00	30.174 
03:00	39.3	39.3	39.3	85	35.2	0	1	90	0.00	30.175 
03:05	39.1	39.1	39.1	85	35.0	0	0	---	0.00	30.175 
03:10	38.8	38.8	38.8	85	34.7	0	0	---	0.00	30.175 
03:15	38.5	38.5	38.5	85	34.4	0	0	---	0.00	30.174 
03:20	38.2	38.2	38.2	86	34.4	0	0	---	0.00	30.174 
03:25	37.9	37.9	37.9	86	34.1	0	0	---	0.00	30.174 
03:30	37.6	37.6	37.6	86	33.8	0	0	---	0.00	30.173 
03:35	37.6	37.6	37.6	87	34.1	0	0	---	0.00	30.173 
03:40	37.6	37.6	37.6	88	34.4	0	1	90	0.00	30.173 
03:45	37.8	37.8	37.8	88	34.6	0	1	90	0.00	30.166 
03:50	37.8	37.8	37.8	88	34.6	0	1	90	0.00	30.166 
03:55	37.9	37.9	37.9	88	34.7	0	2	90	0.00	30.166 
04:00	37.8	37.8	37.8	88	34.6	0	0	---	0.00	30.166 
04:05	37.5	37.5	37.5	88	34.3	0	0	---	0.00	30.166 
04:10	37.3	37.3	37.3	88	34.1	0	1	90	0.00	30.166 
04:15	37.2	37.2	37.2	88	34.0	0	1	90	0.00	30.162 
04:20	37.2	37.2	37.2	88	34.0	0	1	90	0.00	30.162 
04:25	37.2	37.2	37.2	88	34.0	0	1	90	0.00	30.162 
04:30	37.0	37.0	37.0	89	34.1	0	1	90	0.00	30.162 
04:35	37.0	37.0	37.0	89	34.1	0	2	90	0.00	30.162 
04:40	37.0	37.0	37.0	89	34.1	0	2	90	0.00	30.162 
04:45	37.0	37.0	37.0	89	34.1	0	2	90	0.00	30.158 
04:50	37.2	37.2	37.2	89	34.3	1	2	90	0.00	30.158 
04:55	37.0	37.0	37.0	88	33.8	0	2	90	0.00	30.158 
05:00	37.0	37.0	37.0	88	33.8	0	1	90	0.00	30.158 
05:05	36.9	36.9	36.9	88	33.7	0	2	90	0.00	30.158 
05:10	36.8	36.8	36.8	89	33.9	1	4	90	0.00	30.158 
05:15	36.8	36.8	36.8	89	33.9	0	2	112	0.00	30.154 
05:20	36.8	36.8	36.8	89	33.9	0	3	112	0.00	30.154 
05:25	36.8	36.8	36.8	89	33.9	1	3	112	0.00	30.154 
05:30	36.6	36.6	36.6	89	33.7	1	3	112	0.00	30.154 
05:35	36.6	36.6	36.6	89	33.7	1	3	112	0.00	30.154 
05:40	36.5	36.5	36.5	89	33.6	1	4	90	0.00	30.154 
05:45	36.5	36.5	36.5	89	33.6	1	3	90	0.00	30.153 
05:50	36.3	36.3	36.3	90	33.7	1	3	90	0.00	30.153 
05:55	36.3	36.3	36.3	90	33.7	1	3	90	0.00	30.153 
06:00	36.2	36.2	36.2	90	33.6	1	3	112	0.00	30.153 
06:05	36.0	36.0	36.0	90	33.4	0	2	112	0.00	30.153 
06:10	35.9	35.9	35.9	90	33.3	1	3	112	0.00	30.153 
06:15	35.8	35.8	35.8	90	33.2	1	2	90	0.00	30.153 
06:20	35.5	35.5	35.5	90	32.9	1	2	90	0.00	30.153 
06:25	35.3	35.3	35.3	91	32.9	1	3	90	0.00	30.153 
06:30	35.2	35.2	35.2	91	32.8	1	3	90	0.00	30.151 
06:35	35.0	35.0	35.0	91	32.6	1	3	90	0.00	30.151 
06:40	34.9	34.9	34.9	91	32.5	1	3	90	0.00	30.151 
06:45	34.7	34.7	34.7	91	32.3	1	2	90	0.00	30.146 
06:50	34.6	34.6	34.6	91	32.2	1	3	90	0.00	30.146 
06:55	34.4	34.4	34.4	92	32.3	1	3	90	0.00	30.146 
07:00	34.3	34.3	34.3	92	32.2	1	3	90	0.00	30.145 
07:05	34.1	34.1	34.1	92	32.0	1	3	90	0.00	30.145 
07:10	34.0	34.0	34.0	92	31.9	1	2	90	0.00	30.145 
07:15	33.8	33.8	33.8	92	31.7	1	3	90	0.00	30.148 
07:20	33.7	33.7	33.7	92	31.6	1	2	90	0.00	30.148 
07:25	33.5	33.5	33.5	92	31.4	1	2	90	0.00	30.148 
07:30	33.5	33.5	33.5	92	31.4	1	3	90	0.00	30.138 
07:35	33.4	33.4	33.4	92	31.3	1	3	90	0.00	30.138 
07:40	33.4	33.4	33.4	92	31.3	1	3	90	0.00	30.138 
07:45	33.2	33.2	33.2	92	31.1	1	3	90	0.00	30.135 
07:50	33.2	33.2	33.2	92	31.1	1	4	90	0.00	30.135 
07:55	33.2	33.2	33.2	92	31.1	2	5	90	0.00	30.135 
08:00	33.2	33.2	33.2	92	31.1	2	5	90	0.00	30.135 
08:05	33.4	33.4	33.4	93	31.6	1	4	90	0.00	30.135 
08:10	33.7	33.7	33.7	93	31.9	1	3	90	0.00	30.135 
08:15	34.0	34.0	34.0	92	31.9	2	5	90	0.00	30.136 
08:20	34.3	34.3	34.3	92	32.2	2	3	90	0.00	30.136 
08:25	34.4	34.4	34.4	92	32.3	1	4	90	0.00	30.136 
08:30	34.7	34.7	34.7	91	32.3	0	2	90	0.00	30.138 
08:35	35.0	35.0	35.0	91	32.6	1	4	90	0.00	30.138 
08:40	35.0	35.0	35.0	90	32.4	1	3	90	0.00	30.138 
08:45	35.3	35.3	35.3	90	32.7	0	2	90	0.00	30.136 
08:50	35.5	35.5	35.5	90	32.9	1	2	90	0.00	30.136 
08:55	35.9	35.9	35.9	89	33.0	1	4	90	0.00	30.136 
09:00	36.5	36.5	36.5	89	33.6	1	4	90	0.00	30.129 
09:05	37.3	37.3	37.3	88	34.1	1	2	68	0.00	30.129 
09:10	38.0	38.0	38.0	86	34.2	2	5	90	0.00	30.129 
09:15	38.8	38.8	38.8	84	34.4	1	3	90	0.00	30.123 
09:20	39.5	39.5	39.5	82	34.5	1	3	90	0.00	30.123 
09:25	40.1	40.1	40.1	81	34.7	1	3	90	0.00	30.123 
09:30	40.6	40.6	40.6	79	34.6	1	4	90	0.00	30.117 
09:35	41.1	41.1	41.1	79	35.1	1	3	90	0.00	30.117 
09:40	41.5	41.5	41.5	78	35.2	1	3	90	0.00	30.117 
09:45	41.9	41.9	41.9	78	35.5	0	2	90	0.00	30.113 
09:50	42.2	42.2	42.2	77	35.5	1	3	90	0.00	30.113 
09:55	42.8	42.8	42.8	76	35.8	1	3	90	0.00	30.113 
10:00	43.5	43.5	43.5	74	35.8	1	3	90	0.00	30.099 
10:05	44.2	44.2	44.2	72	35.8	1	3	90	0.00	30.099 
10:10	45.1	45.1	45.1	69	35.5	1	4	90	0.00	30.099 
10:15	45.8	45.8	45.8	68	35.8	2	4	90	0.00	30.096 
10:20	46.5	46.5	46.5	67	36.1	1	3	68	0.00	30.096 
10:25	47.1	47.1	47.1	65	35.9	2	5	90	0.00	30.096 
10:30	47.9	47.9	47.9	64	36.3	1	3	90	0.00	30.088 
10:35	48.6	48.6	48.6	62	36.2	2	6	90	0.00	30.088 
10:40	49.4	49.4	49.4	61	36.5	2	5	90	0.00	30.088 
10:45	49.9	49.9	49.9	60	36.6	2	5	90	0.00	30.078 
10:50	50.5	50.5	50.5	59	36.7	1	4	90	0.00	30.078 
10:55	51.3	51.3	51.3	58	37.0	1	4	68	0.00	30.078 
11:00	52.0	52.0	52.0	56	36.8	2	4	90	0.00	30.073 
11:05	52.6	52.6	52.6	55	36.9	2	5	90	0.00	30.073 
11:10	53.5	53.5	53.5	53	36.8	2	5	90	0.00	30.073 
11:15	54.2	54.2	54.2	52	37.0	1	5	90	0.00	30.059 
11:20	55.0	55.0	55.0	52	37.7	2	4	90	0.00	30.059 
11:25	55.7	55.7	55.7	50	37.3	2	4	90	0.00	30.059 
11:30	56.2	56.2	56.2	49	37.3	1	4	90	0.00	30.045 
11:35	57.0	57.0	57.0	49	38.0	1	5	112	0.00	30.045 
11:40	58.0	58.0	58.0	46	37.3	2	7	90	0.00	30.045 
11:45	58.7	58.7	58.7	46	38.0	1	4	112	0.00	30.039 
11:50	59.8	59.8	59.8	45	38.4	2	4	112	0.00	30.039 
11:55	61.0	61.0	61.0	43	38.3	2	6	68	0.00	30.039 
12:00	62.0	62.0	62.0	42	38.6	3	6	112	0.00	30.021 
12:05	62.7	62.7	62.7	41	38.7	2	4	90	0.00	30.021 
12:10	63.5	63.5	63.5	40	38.7	2	4	90	0.00	30.021 
12:15	64.5	64.5	64.5	39	39.0	2	4	112	0.00	30.001 
12:20	65.0	65.0	65.0	39	39.4	1	4	112	0.00	30.001 
12:25	66.1	66.1	66.1	39	40.4	1	3	270	0.00	30.001 
12:30	66.9	66.9	66.9	38	40.5	2	5	90	0.00	29.986 
12:35	67.1	67.1	67.1	38	40.6	1	4	68	0.00	29.986 
12:40	67.3	67.3	67.3	38	40.8	1	4	135	0.00	29.986 
12:45	67.3	67.3	67.3	38	40.8	1	5	90	0.00	29.971 
12:50	67.4	67.4	67.4	38	40.9	1	3	112	0.00	29.971 
12:55	67.8	67.8	67.8	39	41.9	1	4	112	0.00	29.971 
13:00	68.1	68.1	68.1	37	40.8	2	5	90	0.00	29.969 
13:05	68.3	68.3	68.3	37	41.0	1	4	90	0.00	29.969 
13:10	68.6	68.6	68.6	37	41.3	2	4	90	0.00	29.969 
13:15	68.8	68.8	68.8	37	41.5	1	5	68	0.00	29.965 
13:20	69.4	69.4	69.4	37	42.0	3	6	90	0.00	29.965 
13:25	69.8	69.8	69.8	35	40.9	3	9	90	0.00	29.965 
13:30	70.1	70.1	70.1	35	41.2	2	5	270	0.00	29.956 
13:35	70.4	70.4	70.4	35	41.4	1	5	225	0.00	29.956 
13:40	70.3	70.3	70.3	34	40.6	3	6	292	0.00	29.956 
13:45	69.9	69.9	69.9	35	41.0	2	6	112	0.00	29.949 
13:50	69.8	69.8	69.8	35	40.9	2	6	270	0.00	29.949 
13:55	69.8	69.8	69.8	35	40.9	2	6	90	0.00	29.949 
14:00	69.8	69.8	69.8	36	41.6	2	7	248	0.00	29.938 
14:05	69.8	69.8	69.8	37	42.3	2	7	270	0.00	29.938 
14:10	69.6	69.6	69.6	37	42.2	2	10	315	0.00	29.938 
14:15	69.3	69.3	69.3	37	41.9	2	5	90	0.00	29.935 
14:20	69.1	69.1	69.1	37	41.7	2	7	68	0.00	29.935 
14:25	68.8	68.8	68.8	37	41.5	3	8	90	0.00	29.935 
14:30	68.6	68.6	68.6	38	42.0	2	5	45	0.00	29.920 
14:35	68.4	68.4	68.4	39	42.5	1	6	90	0.00	29.920 
14:40	68.4	68.4	68.4	39	42.5	1	4	315	0.00	29.920 
14:45	68.4	68.4	68.4	40	43.1	2	7	112	0.00	29.921 
14:50	68.3	68.3	68.3	43	44.9	3	8	90	0.00	29.921 
14:55	67.9	67.9	67.9	43	44.6	3	7	90	0.00	29.921 
15:00	67.6	67.6	67.6	45	45.5	1	5	90	0.00	29.906 
15:05	67.1	67.1	67.1	45	45.0	2	7	90	0.00	29.906 
15:10	66.9	66.9	66.9	45	44.9	1	4	292	0.00	29.906 
15:15	67.1	67.1	67.1	45	45.0	2	6	112	0.00	29.904 
15:20	67.1	67.1	67.1	46	45.6	2	6	112	0.00	29.904 
15:25	66.9	66.9	66.9	46	45.4	1	5	112	0.00	29.904 
15:30	66.8	66.8	66.8	45	44.8	1	4	90	0.00	29.899 
15:35	66.6	66.6	66.6	45	44.6	1	5	90	0.00	29.899 
15:40	66.4	66.4	66.4	45	44.4	1	3	112	0.00	29.899 
15:45	66.3	66.3	66.3	46	44.9	1	5	112	0.00	29.895 
15:50	66.1	66.1	66.1	46	44.7	1	3	68	0.00	29.895 
15:55	66.1	66.1	66.1	47	45.3	1	4	45	0.00	29.895 
16:00	66.0	66.0	66.0	47	45.2	0	2	45	0.00	29.892 
16:05	65.8	65.8	65.8	48	45.6	0	2	315	0.00	29.892 
16:10	65.6	65.6	65.6	48	45.4	0	2	315	0.00	29.892 
16:15	65.6	65.6	65.6	49	45.9	0	2	315	0.00	29.900 
16:20	65.5	65.5	65.5	50	46.4	1	3	315	0.00	29.900 
16:25	65.5	65.5	65.5	51	46.9	1	3	248	0.00	29.900 
16:30	65.5	65.5	65.5	52	47.4	0	1	248	0.00	29.894 
16:35	65.5	65.5	65.5	53	47.9	1	4	248	0.00	29.894 
16:40	65.5	65.5	65.5	54	48.4	1	4	248	0.00	29.894 
16:45	65.3	65.3	65.3	54	48.2	0	3	248	0.00	29.888 
16:50	65.3	65.3	65.3	54	48.2	0	3	248	0.00	29.888 
16:55	65.3	65.3	65.3	54	48.2	1	4	270	0.00	29.888 
17:00	65.2	65.2	65.2	54	48.1	1	4	270	0.00	29.892 
17:05	65.2	65.2	65.2	54	48.1	2	6	248	0.00	29.892 
17:10	65.0	65.0	65.0	55	48.4	2	6	248	0.00	29.892 
17:15	64.8	64.8	64.8	57	49.2	2	6	248	0.00	29.898 
17:20	64.2	64.2	64.2	61	50.5	3	6	248	0.00	29.898 
17:25	63.2	63.2	63.2	65	51.2	3	7	248	0.00	29.898 
17:30	62.6	62.6	62.6	69	52.3	3	6	248	0.00	29.912 
17:35	61.6	61.6	61.6	74	53.2	3	9	225	0.00	29.912 
17:40	60.7	60.7	60.7	78	53.8	2	7	248	0.00	29.912 
17:45	60.1	60.1	60.1	81	54.2	2	5	270	0.01	29.914 
17:50	59.6	59.6	59.6	83	54.4	0	3	225	0.00	29.914 
17:55	59.3	59.3	59.3	84	54.5	1	4	248	0.00	29.914 
18:00	59.0	59.0	59.0	86	54.8	1	4	292	0.01	29.917 
18:05	58.7	58.7	58.7	87	54.8	0	1	248	0.00	29.917 
18:10	58.4	58.4	58.4	88	54.9	0	1	248	0.00	29.917 
18:15	58.0	58.0	58.0	88	54.5	1	3	248	0.01	29.928 
18:20	57.5	57.5	57.5	89	54.3	1	3	248	0.01	29.928 
18:25	57.2	57.2	57.2	90	54.3	1	3	248	0.00	29.928 
18:30	57.0	57.0	57.0	91	54.4	0	2	248	0.01	29.927 
18:35	56.9	56.9	56.9	91	54.3	1	4	248	0.01	29.927 
18:40	56.7	56.7	56.7	92	54.4	2	6	248	0.01	29.927 
18:45	56.6	56.6	56.6	92	54.3	1	3	248	0.01	29.927 
18:50	56.6	56.6	56.6	92	54.3	1	4	248	0.01	29.927 
18:55	56.5	56.5	56.5	92	54.2	0	3	248	0.02	29.927 
19:00	56.3	56.3	56.3	92	54.0	1	3	248	0.02	29.928 
19:05	56.3	56.3	56.3	93	54.3	0	3	248	0.02	29.928 
19:10	56.3	56.3	56.3	93	54.3	0	2	248	0.01	29.928 
19:15	56.2	56.2	56.2	93	54.2	1	3	248	0.00	29.926 
19:20	56.2	56.2	56.2	93	54.2	0	3	270	0.01	29.926 
19:25	56.0	56.0	56.0	93	54.0	0	3	248	0.02	29.926 
19:30	55.9	55.9	55.9	93	53.9	1	4	248	0.01	29.925 
19:35	55.9	55.9	55.9	93	53.9	0	3	248	0.01	29.925 
19:40	55.7	55.7	55.7	94	54.0	0	3	90	0.01	29.925 
19:45	55.7	55.7	55.7	94	54.0	0	2	90	0.01	29.922 
19:50	55.6	55.6	55.6	94	53.9	0	2	90	0.00	29.922 
19:55	55.6	55.6	55.6	94	53.9	0	2	90	0.01	29.922 
20:00	55.6	55.6	55.6	94	53.9	0	1	248	0.00	29.921 
20:05	55.4	55.4	55.4	94	53.7	1	2	248	0.01	29.921 
20:10	55.3	55.3	55.3	94	53.6	0	3	248	0.00	29.921 
20:15	55.3	55.3	55.3	94	53.6	1	4	248	0.00	29.916 
20:20	55.1	55.1	55.1	94	53.4	0	2	248	0.01	29.916 
20:25	55.1	55.1	55.1	94	53.4	1	3	248	0.00	29.916 
20:30	55.1	55.1	55.1	94	53.4	0	2	248	0.00	29.910 
20:35	55.0	55.0	55.0	94	53.3	0	2	248	0.01	29.910 
20:40	55.0	55.0	55.0	94	53.3	0	1	248	0.00	29.910 
20:45	55.0	55.0	55.0	94	53.3	0	2	248	0.00	29.911 
20:50	54.8	54.8	54.8	95	53.4	0	2	248	0.01	29.911 
20:55	54.8	54.8	54.8	95	53.4	0	3	248	0.00	29.911 
21:00	54.7	54.7	54.7	95	53.3	0	1	248	0.00	29.906 
21:05	54.7	54.7	54.7	95	53.3	1	3	248	0.01	29.906 
21:10	54.5	54.5	54.5	95	53.1	0	1	248	0.00	29.906 
21:15	54.5	54.5	54.5	95	53.1	0	3	248	0.00	29.902 
21:20	54.4	54.4	54.4	95	53.0	0	2	248	0.00	29.902 
21:25	53.3	53.3	53.3	93	51.3	3	7	270	0.01	29.902 
21:30	51.0	51.0	51.0	93	49.0	4	7	270	0.00	29.925 
21:35	50.1	50.1	50.1	93	48.2	4	7	270	0.00	29.925 
21:40	49.5	49.5	49.5	93	47.6	3	7	270	0.00	29.925 
21:45	49.2	49.2	49.2	94	47.5	3	6	270	0.00	29.934 
21:50	48.9	48.9	48.9	94	47.2	3	9	248	0.01	29.934 
21:55	48.8	48.8	48.8	94	47.1	2	6	248	0.00	29.934 
22:00	48.6	48.6	48.6	94	47.0	2	3	248	0.00	29.935 
22:05	48.2	46.8	48.2	94	46.6	4	10	248	0.00	29.935 
22:10	47.1	45.5	47.1	93	45.2	4	7	270	0.00	29.935 
22:15	46.7	46.7	46.7	93	44.8	3	5	248	0.00	29.932 
22:20	46.4	46.4	46.4	94	44.8	2	5	248	0.01	29.932 
22:25	46.2	46.2	46.2	94	44.6	2	4	248	0.00	29.932 
22:30	46.2	46.2	46.2	94	44.6	1	3	248	0.00	29.928 
22:35	46.1	46.1	46.1	94	44.5	2	4	248	0.00	29.928 
22:40	46.1	46.1	46.1	94	44.5	2	5	248	0.00	29.928 
22:45	46.0	46.0	46.0	94	44.4	1	4	248	0.00	29.929 
22:50	45.7	45.7	45.7	94	44.1	2	4	248	0.00	29.929 
22:55	45.5	45.5	45.5	94	43.9	2	4	248	0.00	29.929 
23:00	45.5	45.5	45.5	94	43.9	2	4	248	0.00	29.931 
23:05	45.4	45.4	45.4	94	43.8	2	5	248	0.00	29.931 
23:10	45.2	45.2	45.2	94	43.6	2	4	270	0.00	29.931 
23:15	45.1	45.1	45.1	93	43.2	1	3	270	0.00	29.934 
23:20	44.8	44.8	44.8	93	42.9	2	5	270	0.00	29.934 
23:25	44.3	44.3	44.3	93	42.4	3	5	270	0.00	29.934 
23:30	44.1	44.1	44.1	93	42.2	2	4	270	0.00	29.924 
23:35	43.8	43.8	43.8	93	41.9	3	6	270	0.00	29.924 
23:40	43.6	43.6	43.6	93	41.7	3	5	270	0.00	29.924 
23:45	43.5	43.5	43.5	92	41.3	3	6	270	0.00	29.927 
23:50	43.3	43.3	43.3	92	41.1	2	5	270	0.00	29.927 
23:55	43.3	43.3	43.3	92	41.1	2	5	270	0.00	29.927 

CoCoRaHS
IN-AL-39
A2 Web Hosting
Creative Commons License
GoDaddy
search engine by freefind advanced

loaded 2018-11-14 04:29:36 • last modified 2010-11-18 10:43:29
Privacy PolicyDisclaimer
• wx.awcolley.com is powered by PmWiki v.2002016 •
• all content (unless otherwise noted) © 2018 A W Colley